Time;durP1;ratioP1;P1;durP2;ratioP2;P2;SDS_P1;SDS_P2;PMS_P1;PMS_P2;Temp;Humidity;BMP_temperature;BMP_pressure;BME280_temperature;BME280_humidity;BME280_pressure;Samples;Min_cycle;Max_cycle;Signal;HPM_P1;HPM_P2
2024/02/16 00:02:08;;;;;;;5.68;2.33;;;15.30;67.20;16.90;100756.00;;;;5010844;28;20726;-77
2024/02/16 00:04:35;;;;;;;2.83;2.10;;;15.30;67.20;16.90;100755.00;;;;5011556;28;20228;-78
2024/02/16 00:07:02;;;;;;;5.97;2.08;;;15.30;67.20;16.90;100746.00;;;;5010963;28;20203;-77
2024/02/16 00:09:29;;;;;;;4.70;2.35;;;15.30;67.20;16.90;100752.00;;;;5008847;28;20240;-75
2024/02/16 00:11:56;;;;;;;2.67;1.90;;;15.30;67.30;16.80;100756.00;;;;5008793;28;20287;-77
2024/02/16 00:14:23;;;;;;;4.30;2.55;;;15.30;67.30;16.80;100756.00;;;;5011909;28;20532;-77
2024/02/16 00:16:50;;;;;;;6.03;2.42;;;15.20;67.20;16.80;100755.00;;;;5009987;28;20627;-77
2024/02/16 00:19:19;;;;;;;5.18;2.50;;;15.30;67.30;16.80;100749.00;;;;5013583;28;20284;-76
2024/02/16 00:21:46;;;;;;;3.13;2.40;;;15.20;67.20;16.80;100748.00;;;;5000062;28;20197;-77
2024/02/16 00:24:13;;;;;;;4.30;2.25;;;15.20;67.30;16.80;100743.00;;;;5000714;28;20276;-77
2024/02/16 00:26:40;;;;;;;5.82;2.42;;;15.20;67.30;16.80;100743.00;;;;5010035;28;21262;-76
2024/02/16 00:29:08;;;;;;;3.38;2.15;;;15.20;67.40;16.80;100754.00;;;;5009498;28;20200;-77
2024/02/16 00:31:35;;;;;;;3.80;1.98;;;15.20;67.40;16.70;100745.00;;;;5003626;28;20196;-77
2024/02/16 00:34:02;;;;;;;5.15;2.03;;;15.10;67.30;16.70;100751.00;;;;4996311;28;20299;-77
2024/02/16 00:36:34;;;;;;;4.88;1.98;;;15.10;67.40;16.70;100747.00;;;;4995401;28;20288;-77
2024/02/16 00:39:01;;;;;;;2.35;2.05;;;15.10;67.40;16.70;100748.00;;;;5000739;28;20198;-77
2024/02/16 00:41:28;;;;;;;4.15;2.65;;;15.10;67.50;16.70;100743.00;;;;5011754;28;20593;-76
2024/02/16 00:43:56;;;;;;;2.38;1.77;;;15.10;67.50;16.70;100747.00;;;;5004102;28;20201;-77
2024/02/16 00:46:23;;;;;;;2.83;1.80;;;15.10;67.40;16.70;100747.00;;;;5010630;28;20244;-77
2024/02/16 00:48:50;;;;;;;2.47;2.17;;;15.10;67.40;16.70;100744.00;;;;5009734;28;20570;-77
2024/02/16 00:51:18;;;;;;;3.80;2.05;;;15.10;67.50;16.60;100740.00;;;;5010242;28;20196;-77
2024/02/16 00:53:47;;;;;;;2.47;2.10;;;15.10;67.50;16.60;100744.00;;;;4999829;28;20221;-77
2024/02/16 00:56:14;;;;;;;3.65;2.10;;;15.00;67.40;16.70;100738.00;;;;5014968;28;20201;-76
2024/02/16 00:58:42;;;;;;;3.83;2.33;;;15.10;67.40;16.60;100743.00;;;;5013687;28;20685;-77
2024/02/16 01:01:11;;;;;;;7.13;2.50;;;15.00;67.40;16.60;100733.00;;;;5014072;28;20685;-76
2024/02/16 01:03:38;;;;;;;3.40;2.55;;;15.00;67.40;16.50;100737.00;;;;4994188;28;20211;-77
2024/02/16 01:06:08;;;;;;;3.10;2.00;;;15.00;67.40;16.60;100724.00;;;;5013427;28;20228;-76
2024/02/16 01:08:36;;;;;;;3.50;2.33;;;15.00;67.40;16.50;100729.00;;;;5011744;28;20204;-77
2024/02/16 01:11:04;;;;;;;4.28;2.90;;;15.00;67.40;16.50;100723.00;;;;5011279;28;20211;-76
2024/02/16 01:13:32;;;;;;;3.88;2.58;;;14.90;67.40;16.50;100722.00;;;;5013494;28;20288;-77
2024/02/16 01:15:59;;;;;;;5.05;2.22;;;14.90;67.50;16.50;100720.00;;;;4995537;28;20204;-77
2024/02/16 01:18:28;;;;;;;4.00;2.30;;;15.00;67.50;16.50;100715.00;;;;5013493;28;20571;-76
2024/02/16 01:20:56;;;;;;;4.25;2.35;;;14.90;67.50;16.50;100718.00;;;;5010969;28;20197;-77
2024/02/16 01:23:23;;;;;;;2.45;2.20;;;14.90;67.50;16.50;100710.00;;;;5013820;28;20211;-77
2024/02/16 01:25:50;;;;;;;3.65;2.30;;;14.90;67.50;16.50;100713.00;;;;5010765;28;20228;-76
2024/02/16 01:28:18;;;;;;;2.40;2.10;;;14.90;67.50;16.40;100707.00;;;;5007167;28;20196;-76
2024/02/16 01:30:45;;;;;;;3.80;2.10;;;14.80;67.50;16.40;100703.00;;;;5014076;28;20669;-77
2024/02/16 01:33:13;;;;;;;4.97;2.28;;;14.90;67.60;16.50;100702.00;;;;5014022;28;20573;-76
2024/02/16 01:35:40;;;;;;;3.80;2.13;;;14.80;67.50;16.40;100691.00;;;;5012732;28;20317;-77
2024/02/16 01:38:07;;;;;;;3.70;2.00;;;14.80;67.50;16.40;100698.00;;;;5012735;28;20287;-76
2024/02/16 01:40:35;;;;;;;3.47;2.45;;;14.80;67.60;16.40;100701.00;;;;5013399;28;20631;-76
2024/02/16 01:43:02;;;;;;;3.72;2.08;;;14.80;67.60;16.40;100702.00;;;;5013220;28;20280;-77
2024/02/16 01:45:30;;;;;;;2.20;1.80;;;14.80;67.60;16.40;100698.00;;;;5013059;28;20229;-76
2024/02/16 01:47:59;;;;;;;4.10;1.75;;;14.80;67.60;16.40;100701.00;;;;5008453;28;20256;-76
2024/02/16 01:50:29;;;;;;;2.67;1.80;;;14.80;67.70;16.40;100695.00;;;;5014021;28;20193;-76
2024/02/16 01:52:56;;;;;;;3.53;2.50;;;14.70;67.70;16.40;100700.00;;;;5012599;28;20271;-77
2024/02/16 01:55:26;;;;;;;3.30;2.05;;;14.70;67.70;16.30;100697.00;;;;5012045;28;20730;-76
2024/02/16 01:57:53;;;;;;;3.40;2.10;;;14.70;67.70;16.30;100696.00;;;;5013127;28;20212;-77
2024/02/16 02:00:20;;;;;;;2.90;2.13;;;14.70;67.70;16.30;100701.00;;;;5006942;28;20205;-76
2024/02/16 02:02:50;;;;;;;3.40;2.50;;;14.70;67.70;16.30;100697.00;;;;5012406;28;20280;-76
2024/02/16 02:05:17;;;;;;;3.40;2.55;;;14.70;67.80;16.40;100692.00;;;;5006787;28;20225;-77
2024/02/16 02:07:44;;;;;;;3.05;2.20;;;14.70;67.90;16.40;100685.00;;;;5011935;28;20624;-76
2024/02/16 02:10:12;;;;;;;3.65;2.25;;;14.70;67.90;16.40;100689.00;;;;5012641;28;20272;-77
2024/02/16 02:12:42;;;;;;;5.05;2.35;;;14.70;67.90;16.40;100688.00;;;;5012793;28;20569;-77
2024/02/16 02:15:10;;;;;;;3.22;1.98;;;14.70;67.90;16.40;100682.00;;;;5012732;28;20566;-76
2024/02/16 02:17:39;;;;;;;3.13;2.30;;;14.70;68.00;16.40;100685.00;;;;5015013;28;20295;-77
2024/02/16 02:20:10;;;;;;;2.78;2.15;;;14.70;68.00;16.40;100691.00;;;;5012888;28;20200;-76
2024/02/16 02:22:39;;;;;;;5.32;2.42;;;14.70;68.00;16.40;100692.00;;;;5007710;28;20197;-76
2024/02/16 02:25:10;;;;;;;3.92;2.40;;;14.70;68.00;16.40;100689.00;;;;5009434;28;20224;-77
2024/02/16 02:27:37;;;;;;;3.78;2.60;;;14.70;68.00;16.40;100688.00;;;;5010177;28;20197;-77
2024/02/16 02:30:06;;;;;;;6.00;2.30;;;14.70;68.00;16.40;100696.00;;;;5009431;28;20625;-76
2024/02/16 02:32:33;;;;;;;2.45;2.15;;;14.80;68.10;16.40;100693.00;;;;5012889;28;20280;-77
2024/02/16 02:35:00;;;;;;;3.35;2.20;;;14.80;68.10;16.40;100683.00;;;;5008729;28;20225;-77
2024/02/16 02:37:28;;;;;;;4.70;2.05;;;14.80;68.00;16.40;100680.00;;;;5011117;28;20765;-76
2024/02/16 02:39:56;;;;;;;2.88;2.42;;;14.80;68.00;16.40;100678.00;;;;5012324;28;20200;-77
2024/02/16 02:42:23;;;;;;;4.22;2.20;;;14.80;67.90;16.40;100677.00;;;;5012327;28;20280;-76
2024/02/16 02:44:51;;;;;;;3.53;2.65;;;14.80;67.90;16.40;100671.00;;;;5011218;28;20295;-77
2024/02/16 02:47:18;;;;;;;3.00;2.08;;;14.70;67.80;16.40;100675.00;;;;5011798;28;20228;-76
2024/02/16 02:49:45;;;;;;;2.72;2.33;;;14.80;67.90;16.40;100663.00;;;;5011368;28;20286;-77
2024/02/16 02:52:12;;;;;;;3.95;2.85;;;14.70;67.90;16.40;100659.00;;;;5010716;28;20611;-77
2024/02/16 02:54:39;;;;;;;3.42;2.50;;;14.80;67.90;16.40;100661.00;;;;5012178;28;20664;-77
2024/02/16 02:57:08;;;;;;;6.05;2.40;;;14.70;67.80;16.40;100656.00;;;;5011826;28;20292;-76
2024/02/16 02:59:35;;;;;;;3.25;2.33;;;14.80;67.90;16.40;100650.00;;;;5002471;28;20279;-77
2024/02/16 03:02:02;;;;;;;2.08;1.88;;;14.70;67.80;16.40;100647.00;;;;4999477;28;20281;-77
2024/02/16 03:04:29;;;;;;;5.55;2.22;;;14.70;67.80;16.30;100649.00;;;;5004297;28;20209;-77
2024/02/16 03:06:56;;;;;;;4.25;2.25;;;14.70;67.70;16.40;100655.00;;;;5011743;28;20221;-77
2024/02/16 03:09:23;;;;;;;3.25;2.30;;;14.70;67.70;16.30;100650.00;;;;5016308;28;20270;-77
2024/02/16 03:11:50;;;;;;;3.10;2.35;;;14.80;67.70;16.30;100645.00;;;;5011633;28;20193;-77
2024/02/16 03:14:19;;;;;;;4.03;2.05;;;14.70;67.60;16.30;100638.00;;;;5012447;28;20284;-77
2024/02/16 03:16:46;;;;;;;3.10;2.60;;;14.70;67.60;16.30;100641.00;;;;5010822;28;20284;-77
2024/02/16 03:19:13;;;;;;;3.30;2.30;;;14.60;67.50;16.20;100641.00;;;;5010394;28;20558;-77
2024/02/16 03:21:40;;;;;;;5.45;2.30;;;14.60;67.50;16.20;100640.00;;;;5011573;28;20232;-77
2024/02/16 03:24:08;;;;;;;5.20;2.30;;;14.60;67.50;16.20;100635.00;;;;5012080;28;20570;-77
2024/02/16 03:26:35;;;;;;;3.97;2.70;;;14.60;67.50;16.20;100635.00;;;;5001316;28;20594;-77
2024/02/16 03:29:03;;;;;;;2.90;2.47;;;14.50;67.40;16.10;100645.00;;;;5004608;28;20211;-76
2024/02/16 03:31:33;;;;;;;3.15;2.40;;;14.50;67.50;16.10;100646.00;;;;5009339;28;20669;-77
2024/02/16 03:34:00;;;;;;;3.70;2.40;;;14.50;67.60;16.10;100647.00;;;;5012299;28;20287;-77
2024/02/16 03:36:27;;;;;;;2.90;2.38;;;14.50;67.60;16.10;100638.00;;;;5010514;28;20200;-77
2024/02/16 03:38:54;;;;;;;3.75;2.25;;;14.40;67.60;16.00;100632.00;;;;5010946;28;20201;-76
2024/02/16 03:41:24;;;;;;;3.50;2.30;;;14.40;67.60;16.00;100628.00;;;;5011832;28;20283;-76
2024/02/16 03:43:51;;;;;;;3.20;2.20;;;14.40;67.70;16.00;100637.00;;;;5013346;28;20225;-76
2024/02/16 03:46:18;;;;;;;3.72;2.25;;;14.40;67.70;16.00;100638.00;;;;4993666;28;20312;-77
2024/02/16 03:48:47;;;;;;;3.30;2.22;;;14.30;67.70;16.00;100644.00;;;;5006624;28;20284;-77
2024/02/16 03:51:14;;;;;;;3.13;2.38;;;14.30;67.70;15.90;100636.00;;;;5010204;28;20205;-76
2024/02/16 03:53:41;;;;;;;3.50;2.10;;;14.30;67.70;15.90;100634.00;;;;5011415;28;20283;-76
2024/02/16 03:56:08;;;;;;;3.03;2.33;;;14.30;67.70;15.90;100650.00;;;;5011016;28;20204;-77
2024/02/16 03:58:36;;;;;;;3.13;2.10;;;14.30;67.80;15.90;100643.00;;;;5010185;28;20561;-76
2024/02/16 04:01:05;;;;;;;2.22;1.88;;;14.30;67.90;15.90;100643.00;;;;4991268;28;20675;-77
2024/02/16 04:03:32;;;;;;;2.85;2.13;;;14.20;67.80;15.80;100647.00;;;;5000380;28;20190;-77
2024/02/16 04:06:01;;;;;;;2.88;2.10;;;14.20;67.90;15.90;100645.00;;;;5003842;28;20249;-77
2024/02/16 04:08:28;;;;;;;3.30;2.35;;;14.20;67.90;15.90;100653.00;;;;5001413;28;20211;-78
2024/02/16 04:10:55;;;;;;;3.17;2.33;;;14.20;68.00;15.80;100654.00;;;;5011702;28;20611;-76
2024/02/16 04:13:23;;;;;;;2.88;2.15;;;14.20;68.00;15.90;100656.00;;;;5010708;28;20232;-76
2024/02/16 04:15:50;;;;;;;3.45;2.50;;;14.20;68.00;15.80;100647.00;;;;5006368;28;20193;-77
2024/02/16 04:18:18;;;;;;;2.65;1.98;;;14.20;68.00;15.80;100651.00;;;;5021775;28;20296;-76
2024/02/16 04:20:45;;;;;;;3.17;2.20;;;14.20;68.00;15.80;100645.00;;;;5011057;28;20205;-76
2024/02/16 04:23:14;;;;;;;3.65;2.40;;;14.20;68.00;15.80;100650.00;;;;5010971;28;20196;-76
2024/02/16 04:25:41;;;;;;;3.55;2.03;;;14.20;68.00;15.80;100642.00;;;;5010432;28;20312;-76
2024/02/16 04:28:09;;;;;;;2.78;2.35;;;14.10;67.90;15.80;100641.00;;;;5009845;28;20750;-77
2024/02/16 04:30:36;;;;;;;3.55;2.45;;;14.10;67.90;15.80;100643.00;;;;5013217;28;20197;-77
2024/02/16 04:33:04;;;;;;;3.00;2.33;;;14.10;67.90;15.80;100631.00;;;;5015761;28;20680;-76
2024/02/16 04:35:31;;;;;;;2.72;1.88;;;14.10;67.90;15.80;100637.00;;;;5013366;28;20289;-76
2024/02/16 04:37:59;;;;;;;3.88;2.63;;;14.10;67.90;15.70;100639.00;;;;5012706;28;20216;-76
2024/02/16 04:40:27;;;;;;;3.40;2.40;;;14.10;68.00;15.70;100642.00;;;;5014050;28;20636;-76
2024/02/16 04:42:54;;;;;;;5.20;2.65;;;14.10;68.10;15.70;100652.00;;;;5013058;28;20575;-76
2024/02/16 04:45:21;;;;;;;4.80;2.35;;;14.10;68.10;15.70;100642.00;;;;5013547;28;20197;-76
2024/02/16 04:47:48;;;;;;;3.85;2.58;;;14.10;68.10;15.70;100646.00;;;;5013425;28;20251;-76
2024/02/16 04:50:15;;;;;;;3.20;2.35;;;14.10;68.20;15.70;100653.00;;;;5020563;28;20291;-77
2024/02/16 04:52:43;;;;;;;3.42;2.80;;;14.10;68.20;15.70;100649.00;;;;5022286;28;20722;-76
2024/02/16 04:55:11;;;;;;;3.20;2.25;;;14.10;68.20;15.70;100646.00;;;;5003380;28;20786;-76
2024/02/16 04:57:39;;;;;;;7.72;2.72;;;14.10;68.20;15.70;100655.00;;;;5009416;28;20351;-77
2024/02/16 05:00:09;;;;;;;3.15;2.05;;;14.10;68.20;15.70;100651.00;;;;5007946;28;20283;-77
2024/02/16 05:02:36;;;;;;;6.05;2.75;;;14.10;68.20;15.70;100649.00;;;;5013560;28;20252;-77
2024/02/16 05:05:04;;;;;;;2.67;2.28;;;14.10;68.20;15.70;100648.00;;;;5014826;28;20276;-76
2024/02/16 05:07:32;;;;;;;4.13;2.72;;;14.10;68.10;15.70;100644.00;;;;5012330;28;21860;-77
2024/02/16 05:09:59;;;;;;;3.65;2.35;;;14.10;68.10;15.70;100650.00;;;;5014609;28;20193;-76
2024/02/16 05:12:26;;;;;;;2.97;2.15;;;14.10;68.10;15.70;100649.00;;;;5014605;28;20276;-76
2024/02/16 05:14:56;;;;;;;3.13;2.00;;;14.10;68.20;15.60;100644.00;;;;5014540;28;20288;-76
2024/02/16 05:17:24;;;;;;;3.63;2.50;;;14.00;68.10;15.70;100646.00;;;;5011970;28;20673;-76
2024/02/16 05:19:51;;;;;;;3.22;2.40;;;14.10;68.20;15.70;100643.00;;;;5014807;28;20212;-77
2024/02/16 05:22:19;;;;;;;3.85;2.28;;;14.00;68.30;15.70;100638.00;;;;5014005;28;20219;-77
2024/02/16 05:24:46;;;;;;;2.90;2.08;;;14.00;68.30;15.70;100638.00;;;;5020598;28;20280;-77
2024/02/16 05:27:13;;;;;;;3.40;2.50;;;14.00;68.50;15.70;100629.00;;;;5014245;28;20315;-76
2024/02/16 05:29:40;;;;;;;3.63;2.30;;;14.10;68.40;15.70;100631.00;;;;4994748;28;20598;-76
2024/02/16 05:32:10;;;;;;;4.07;2.05;;;14.10;68.40;15.70;100637.00;;;;4996738;28;20288;-76
2024/02/16 05:34:38;;;;;;;3.47;2.38;;;14.10;68.50;15.70;100640.00;;;;5013980;28;20264;-76
2024/02/16 05:37:07;;;;;;;2.92;1.85;;;14.10;68.50;15.80;100634.00;;;;5014159;28;20214;-76
2024/02/16 05:39:35;;;;;;;2.67;2.20;;;14.10;68.50;15.80;100633.00;;;;5012385;28;20204;-77
2024/02/16 05:42:04;;;;;;;2.45;1.83;;;14.10;68.50;15.80;100639.00;;;;5010585;28;20205;-76
2024/02/16 05:44:32;;;;;;;3.28;2.20;;;14.20;68.50;15.80;100639.00;;;;5006751;28;20207;-76
2024/02/16 05:46:59;;;;;;;3.58;1.80;;;14.20;68.50;15.80;100641.00;;;;5013157;28;20294;-77
2024/02/16 05:49:30;;;;;;;4.03;1.92;;;14.20;68.50;15.80;100638.00;;;;5012295;28;20279;-76
2024/02/16 05:54:59;;;;;;;3.55;2.38;;;14.20;68.40;15.80;100640.00;;;;5072228;28;20573;-77
2024/02/16 05:57:26;;;;;;;6.07;2.45;;;14.20;68.30;15.80;100641.00;;;;5048415;28;20294;-77
2024/02/16 05:59:53;;;;;;;2.75;2.17;;;14.20;68.30;15.80;100640.00;;;;5067522;28;20282;-77
2024/02/16 06:02:20;;;;;;;3.75;2.50;;;14.20;68.30;15.80;100646.00;;;;5047878;28;20199;-77
2024/02/16 06:04:47;;;;;;;4.15;2.22;;;14.20;68.30;15.80;100640.00;;;;5048207;28;20278;-76
2024/02/16 06:07:14;;;;;;;4.65;2.83;;;14.20;68.30;15.80;100636.00;;;;5060502;28;20224;-76
2024/02/16 06:09:41;;;;;;;3.58;2.05;;;14.20;68.40;15.80;100643.00;;;;5048273;28;20657;-77
2024/02/16 06:12:12;;;;;;;3.10;2.25;;;14.20;68.40;15.80;100632.00;;;;5062453;28;20282;-77
2024/02/16 06:14:39;;;;;;;3.72;2.40;;;14.20;68.40;15.90;100650.00;;;;5067669;28;20230;-76
2024/02/16 06:17:08;;;;;;;3.22;2.08;;;14.20;68.40;15.90;100648.00;;;;5061309;28;20278;-76
2024/02/16 06:19:36;;;;;;;2.53;1.92;;;14.20;68.40;15.90;100655.00;;;;5049923;28;20229;-76
2024/02/16 06:22:05;;;;;;;3.22;2.38;;;14.20;68.40;15.90;100665.00;;;;5057859;28;20203;-77
2024/02/16 06:24:32;;;;;;;5.15;2.58;;;14.20;68.40;15.90;100666.00;;;;5061657;28;20219;-76
2024/02/16 06:26:59;;;;;;;4.45;2.10;;;14.20;68.40;15.90;100677.00;;;;5050859;28;20199;-77
2024/02/16 06:29:28;;;;;;;3.38;2.13;;;14.20;68.40;15.90;100676.00;;;;5059388;28;20287;-76
2024/02/16 06:31:55;;;;;;;5.88;2.28;;;14.20;68.50;15.90;100677.00;;;;5057947;28;20287;-76
2024/02/16 06:34:22;;;;;;;2.97;2.00;;;14.20;68.50;15.90;100678.00;;;;5068159;28;20250;-76
2024/02/16 06:36:49;;;;;;;3.50;2.08;;;14.30;68.60;16.00;100675.00;;;;5055842;28;20203;-77
2024/02/16 06:39:18;;;;;;;3.15;2.17;;;14.20;68.60;15.90;100676.00;;;;5048677;28;20196;-76
2024/02/16 06:41:46;;;;;;;2.80;1.98;;;14.30;68.60;15.90;100676.00;;;;5048837;28;20211;-76
2024/02/16 06:44:14;;;;;;;4.47;2.30;;;14.30;68.60;16.00;100690.00;;;;5048487;28;20214;-77
2024/02/16 06:46:43;;;;;;;3.05;2.05;;;14.30;68.60;16.00;100686.00;;;;5054188;28;20199;-76
2024/02/16 06:49:10;;;;;;;3.90;2.05;;;14.30;68.60;16.00;100692.00;;;;5056218;28;20226;-77
2024/02/16 06:51:38;;;;;;;3.75;1.92;;;14.30;68.60;16.00;100693.00;;;;5051041;28;20290;-78
2024/02/16 06:54:07;;;;;;;4.50;2.17;;;14.30;68.60;16.00;100696.00;;;;5061389;28;20227;-78
2024/02/16 06:56:35;;;;;;;2.67;1.80;;;14.30;68.60;16.00;100698.00;;;;5067793;28;20206;-79
2024/02/16 06:59:02;;;;;;;4.70;2.40;;;14.30;68.60;16.00;100702.00;;;;5050761;28;20649;-78
2024/02/16 07:01:29;;;;;;;4.57;2.13;;;14.30;68.60;16.00;100701.00;;;;5061594;28;20660;-78
2024/02/16 07:03:58;;;;;;;4.82;2.22;;;14.30;68.60;16.00;100695.00;;;;5064693;28;20202;-78
2024/02/16 07:06:26;;;;;;;3.15;2.33;;;14.30;68.70;16.00;100702.00;;;;5047397;28;20195;-77
2024/02/16 07:08:54;;;;;;;2.88;2.17;;;14.30;68.70;16.00;100709.00;;;;5041048;28;20211;-77
2024/02/16 07:11:21;;;;;;;2.85;1.95;;;14.30;68.70;16.00;100700.00;;;;5052011;28;20204;-80
2024/02/16 07:13:48;;;;;;;3.30;2.40;;;14.30;68.80;16.00;100718.00;;;;5054133;28;20233;-80
2024/02/16 07:16:16;;;;;;;2.92;2.20;;;14.30;68.80;16.00;100720.00;;;;5036276;28;20736;-79
2024/02/16 07:18:43;;;;;;;2.95;2.20;;;14.30;68.80;16.00;100725.00;;;;5038197;28;20192;-79
2024/02/16 07:21:12;;;;;;;3.85;2.63;;;14.40;68.90;16.10;100724.00;;;;5032480;28;20561;-80
2024/02/16 07:23:39;;;;;;;3.13;2.22;;;14.40;68.90;16.10;100723.00;;;;5034515;28;20208;-80
2024/02/16 07:26:07;;;;;;;3.38;2.10;;;14.40;68.90;16.10;100729.00;;;;5033788;28;20214;-80
2024/02/16 07:28:35;;;;;;;3.92;2.58;;;14.40;69.00;16.10;100737.00;;;;5033900;28;20776;-80
2024/02/16 07:31:02;;;;;;;2.55;2.03;;;14.40;69.00;16.20;100737.00;;;;5034020;28;20204;-80
2024/02/16 07:33:29;;;;;;;3.97;2.35;;;14.50;69.10;16.20;100741.00;;;;5033885;28;20235;-81
2024/02/16 07:35:57;;;;;;;4.28;2.67;;;14.50;69.20;16.20;100743.00;;;;5034011;28;20287;-80
2024/02/16 07:38:27;;;;;;;4.70;2.38;;;14.50;69.20;16.20;100746.00;;;;5034113;28;20192;-78
2024/02/16 07:40:54;;;;;;;4.00;2.53;;;14.50;69.30;16.30;100749.00;;;;5034369;28;20578;-80
2024/02/16 07:43:23;;;;;;;3.97;2.20;;;14.60;69.40;16.30;100754.00;;;;5032587;28;20235;-77
2024/02/16 07:45:53;;;;;;;3.70;2.60;;;14.60;69.40;16.30;100752.00;;;;5041831;28;20200;-80
2024/02/16 07:48:21;;;;;;;3.50;2.63;;;14.70;69.50;16.30;100759.00;;;;5033804;28;20208;-80
2024/02/16 07:50:50;;;;;;;4.53;2.33;;;14.70;69.60;16.40;100757.00;;;;5046573;28;20203;-79
2024/02/16 07:53:17;;;;;;;4.22;2.97;;;14.70;69.60;16.50;100762.00;;;;5046222;28;20251;-80
2024/02/16 07:55:45;;;;;;;2.72;1.88;;;14.80;69.70;16.50;100758.00;;;;5033991;28;20690;-80
2024/02/16 07:58:12;;;;;;;6.05;2.47;;;14.80;70.50;16.50;100774.00;;;;5033343;28;20208;-80
2024/02/16 08:00:40;;;;;;;2.97;2.38;;;14.90;69.70;16.60;100777.00;;;;5033507;28;20196;-81
2024/02/16 08:03:07;;;;;;;2.78;2.30;;;15.00;69.80;16.60;100777.00;;;;5033459;28;20192;-80
2024/02/16 08:05:35;;;;;;;3.50;2.25;;;15.00;69.80;16.70;100780.00;;;;5033276;28;20747;-79
2024/02/16 08:08:03;;;;;;;2.95;2.10;;;15.10;69.80;16.70;100784.00;;;;5048003;28;20728;-80
2024/02/16 08:10:30;;;;;;;4.57;2.72;;;15.10;69.70;16.80;100783.00;;;;5053293;28;20200;-80
2024/02/16 08:12:58;;;;;;;3.25;2.38;;;15.20;69.80;16.80;100779.00;;;;5052496;28;20291;-80
2024/02/16 08:15:26;;;;;;;3.28;2.25;;;15.30;70.50;16.90;100785.00;;;;5037751;28;20318;-81
2024/02/16 08:17:54;;;;;;;4.75;2.70;;;15.30;69.70;17.00;100780.00;;;;5037213;28;20291;-80
2024/02/16 08:20:22;;;;;;;4.20;2.38;;;15.40;69.70;17.00;100797.00;;;;5033117;28;20193;-79
2024/02/16 08:22:49;;;;;;;4.55;2.45;;;15.50;69.70;17.10;100792.00;;;;5035330;28;20608;-81
2024/02/16 08:25:16;;;;;;;6.07;2.45;;;15.50;69.70;17.10;100800.00;;;;5035353;28;20283;-80
2024/02/16 08:27:43;;;;;;;5.75;2.85;;;15.60;69.70;17.20;100801.00;;;;5044856;28;20199;-80
2024/02/16 08:30:13;;;;;;;3.05;2.58;;;15.60;69.60;17.20;100795.00;;;;5052879;28;20257;-81
2024/02/16 08:32:40;;;;;;;4.47;3.22;;;15.70;69.60;17.30;100812.00;;;;5034531;28;20247;-80
2024/02/16 08:35:09;;;;;;;5.93;2.47;;;15.80;69.70;17.40;100806.00;;;;5032669;28;20313;-81
2024/02/16 08:37:36;;;;;;;6.80;2.85;;;15.80;69.60;17.50;100810.00;;;;5032634;28;20292;-80
2024/02/16 08:40:04;;;;;;;9.48;3.83;;;15.90;69.50;17.50;100811.00;;;;5032320;28;20283;-81
2024/02/16 08:42:32;;;;;;;5.03;2.70;;;15.90;69.40;17.60;100808.00;;;;5051392;28;20208;-80
2024/02/16 08:45:00;;;;;;;3.15;2.58;;;16.00;69.40;17.70;100808.00;;;;5052607;28;20200;-78
2024/02/16 08:47:28;;;;;;;3.85;2.20;;;16.10;69.40;17.70;100812.00;;;;5040585;28;20204;-80
2024/02/16 08:49:55;;;;;;;4.05;2.67;;;16.10;69.30;17.80;100809.00;;;;5037750;28;20271;-81
2024/02/16 08:52:22;;;;;;;5.00;3.03;;;16.20;69.20;17.80;100815.00;;;;5032661;28;20287;-80
2024/02/16 08:54:49;;;;;;;4.85;2.70;;;16.30;69.20;17.90;100819.00;;;;5046839;28;20328;-81
2024/02/16 08:57:17;;;;;;;3.08;2.40;;;16.30;69.20;18.00;100822.00;;;;5051499;28;20298;-80
2024/02/16 08:59:44;;;;;;;6.93;3.50;;;16.40;69.10;18.00;100825.00;;;;5052180;28;20227;-80
2024/02/16 09:02:11;;;;;;;3.88;2.70;;;16.40;69.10;18.10;100826.00;;;;5051455;28;20207;-80
2024/02/16 09:04:40;;;;;;;4.20;2.50;;;16.50;69.10;18.20;100829.00;;;;5051676;28;20287;-79
2024/02/16 09:07:07;;;;;;;4.97;2.60;;;16.60;69.10;18.20;100831.00;;;;5032161;28;20204;-81
2024/02/16 09:09:34;;;;;;;6.45;2.67;;;16.60;69.00;18.20;100838.00;;;;5031835;28;20621;-81
2024/02/16 09:12:01;;;;;;;5.72;3.25;;;16.70;69.00;18.30;100850.00;;;;5032183;28;20198;-81
2024/02/16 09:14:29;;;;;;;6.15;3.08;;;16.70;69.50;18.30;100861.00;;;;5034156;28;20315;-82
2024/02/16 09:16:56;;;;;;;4.28;2.70;;;16.70;68.70;18.40;100871.00;;;;5051244;28;20699;-81
2024/02/16 09:19:23;;;;;;;3.47;3.15;;;16.80;68.70;18.40;100879.00;;;;5051877;28;20282;-81
2024/02/16 09:21:54;;;;;;;4.32;3.05;;;16.80;68.60;18.40;100886.00;;;;5050640;28;20198;-80
2024/02/16 09:24:21;;;;;;;4.30;3.30;;;16.80;69.30;18.40;100884.00;;;;5050502;28;20258;-81
2024/02/16 09:26:49;;;;;;;3.47;2.60;;;16.80;68.60;18.40;100890.00;;;;5052102;28;20199;-79
2024/02/16 09:29:17;;;;;;;5.05;3.42;;;16.80;68.50;18.40;100900.00;;;;5051226;28;20199;-81
2024/02/16 09:31:44;;;;;;;4.72;3.00;;;16.80;68.50;18.40;100899.00;;;;5040173;28;20220;-80
2024/02/16 09:34:12;;;;;;;5.95;3.03;;;16.90;68.60;18.40;100917.00;;;;5031652;28;20306;-80
2024/02/16 09:36:39;;;;;;;6.15;2.92;;;16.90;68.70;18.40;100912.00;;;;5031644;28;20279;-80
2024/02/16 09:39:07;;;;;;;5.50;2.95;;;16.90;68.60;18.40;100912.00;;;;5032630;28;20235;-81
2024/02/16 09:41:36;;;;;;;5.10;2.75;;;16.90;68.70;18.40;100920.00;;;;5031715;28;20648;-81
2024/02/16 09:44:04;;;;;;;4.18;3.28;;;16.90;68.70;18.50;100918.00;;;;5031858;28;20211;-80
2024/02/16 09:46:32;;;;;;;6.53;3.17;;;16.90;68.70;18.50;100924.00;;;;5042689;28;20735;-82
2024/02/16 09:49:03;;;;;;;3.75;2.80;;;16.90;68.80;18.40;100922.00;;;;5049811;28;20211;-80
2024/02/16 09:51:31;;;;;;;5.07;2.80;;;16.90;68.90;18.50;100940.00;;;;5051298;28;20210;-81
2024/02/16 09:54:00;;;;;;;4.57;3.00;;;16.90;68.90;18.50;100947.00;;;;5047220;28;20310;-81
2024/02/16 09:56:28;;;;;;;4.82;2.83;;;16.90;68.90;18.50;100950.00;;;;5031871;28;20193;-79
2024/02/16 09:58:56;;;;;;;4.60;3.40;;;17.00;68.90;18.50;100955.00;;;;5031950;28;20243;-80
2024/02/16 10:01:24;;;;;;;6.60;2.95;;;17.00;68.80;18.50;100950.00;;;;5031072;28;20623;-79
2024/02/16 10:03:51;;;;;;;4.22;3.55;;;17.00;68.80;18.50;100959.00;;;;5042446;28;20191;-78
2024/02/16 10:06:20;;;;;;;7.32;3.10;;;17.00;68.80;18.50;100957.00;;;;5050350;28;20231;-78
2024/02/16 10:08:52;;;;;;;6.43;3.95;;;17.00;68.90;18.40;100954.00;;;;5051329;28;20618;-78
2024/02/16 10:11:21;;;;;;;3.35;2.60;;;17.00;69.00;18.50;100958.00;;;;5051205;28;20294;-78
2024/02/16 10:14:02;;;;;;;4.65;3.47;;;17.00;69.10;18.40;100970.00;;;;5035993;28;20204;-78
2024/02/16 10:16:30;;;;;;;5.63;3.55;;;17.00;69.30;18.50;100970.00;;;;5031047;28;20270;-78
2024/02/16 10:19:05;;;;;;;4.70;3.33;;;17.00;69.20;18.40;100977.00;;;;5030921;28;20223;-78
2024/02/16 10:21:33;;;;;;;5.32;2.95;;;17.00;69.20;18.50;100980.00;;;;5031244;28;20192;-78
2024/02/16 10:24:04;;;;;;;5.38;3.53;;;17.00;69.20;18.50;100983.00;;;;5036039;28;20291;-77
2024/02/16 10:26:31;;;;;;;4.55;3.08;;;17.00;69.30;18.50;100994.00;;;;5030657;28;20669;-78
2024/02/16 10:29:02;;;;;;;5.78;3.72;;;17.00;69.30;18.40;100990.00;;;;5031024;28;20283;-79
2024/02/16 10:31:29;;;;;;;5.97;3.00;;;17.00;69.30;18.40;101007.00;;;;5031591;28;20204;-78
2024/02/16 10:33:59;;;;;;;8.93;3.22;;;17.00;69.30;18.40;101011.00;;;;5031547;28;20212;-77
2024/02/16 10:36:28;;;;;;;4.70;2.95;;;16.90;69.30;18.40;101025.00;;;;5030463;28;20192;-78
2024/02/16 10:38:56;;;;;;;4.32;3.03;;;16.90;69.40;18.40;101023.00;;;;5031005;28;20200;-77
2024/02/16 10:41:29;;;;;;;5.40;3.20;;;16.90;69.40;18.40;101034.00;;;;5051681;28;20207;-77
2024/02/16 10:43:56;;;;;;;7.35;3.50;;;16.90;69.40;18.40;101039.00;;;;5054759;28;20192;-77
2024/02/16 10:46:25;;;;;;;5.93;3.50;;;16.90;69.40;18.30;101039.00;;;;5054820;28;20290;-77
2024/02/16 10:48:52;;;;;;;7.65;3.83;;;16.90;69.40;18.30;101041.00;;;;5046382;28;20287;-78
2024/02/16 10:51:30;;;;;;;6.97;3.67;;;16.80;69.30;18.20;101054.00;;;;5034495;28;20203;-78
2024/02/16 10:54:00;;;;;;;4.75;4.05;;;16.80;69.40;18.20;101057.00;;;;5043467;28;20715;-78